Pagrindinis puslapis
METAR-TAF:

METAR-TAF

Oro uostai :

Pensakola, Florida, Jungtinės Amerikos Valstijos

platuma: 30-21-22N, ilguma: 087-19-24W, Aukštis: 9 m

Dabartinis oras

Ataskaita buvo paskelbta 1 valandą ir 18 minutes, ne 09:56 UTC
Ramus vėjas
Temperatūra 5°C
Drėgmė 87%
Slėgis 1020 hPa
Matomumas: 16.1 km
Giedras dangus

METAR: KNPA 250956Z AUTO 00000KT 10SM CLR 05/03 A3013 RMK AO2 SLP205 T00500033

Laikas: 05:14 (11:14 UTC)

Prognozė

Prognozė galioja nuo 25 metu 07 UTC su 26 metu 07 UTC
Vėjas 6 kt nuo kintamojo kryptimis
Matomumas 10 km arba daugiau
Mažai debesys ne aukštis 2500 ft
Nuo 25 metu 1300 UTC
Vėjas 12 kt iš Šiaurės/Šiaurės Vakarų
Matomumas 10 km arba daugiau
Giedras dangus
Nuo 25 metu 2200 UTC
Vėjas 6 kt nuo kintamojo kryptimis
Matomumas: 2515 m
Giedras dangus

TAF: KNPA 2507/2607 VRB06KT 9999 FEW025 QNH3007INS FM251300 34012KT 9999 SKC QNH3011INS FM252200 VRB06KT 9999 SKC QNH3009INS AUTOMATED SENSOR METWATCH 2507 TIL 2515 T04/2511Z T14/2518Z FN00213

Orai ataskaitas ir orų prognozės (METAR, TAF).

turimą stotys yra geltonos ir raudonos taškus žemėlapyje.

Perkelti pele per norėdami pamatyti stoties vardą.

Tada spustelėkite, norėdami matyti oro stebėjimo ir prognozės.

Norėdami pakeisti žemėlapį: spustelėkite ant žalios mygtukų su juodo kryžiaus žemyn,; žalią mygtuką su brūkšneliu, jei norite nutolinti; arba žalių rodyklių gretimoms žemėlapius.


METAR-TAF: